Time;durP1;ratioP1;P1;durP2;ratioP2;P2;SDS_P1;SDS_P2;PMS_P1;PMS_P2;Temp;Humidity;BMP_temperature;BMP_pressure;BME280_temperature;BME280_humidity;BME280_pressure;Samples;Min_cycle;Max_cycle;Signal;HPM_P1;HPM_P2
2021/12/16 00:35:51;;;;;;;21.35;13.52;;;3.40;84.30;;;-151.14;100.00;62537.16;3863005;36;20019;-86
2021/12/16 00:38:17;;;;;;;22.20;14.05;;;3.40;84.30;;;-151.14;100.00;62537.16;3882412;35;20504;-87
2021/12/16 00:40:44;;;;;;;23.05;13.57;;;3.40;84.30;;;-151.14;100.00;62537.16;3882672;36;19997;-85
2021/12/16 00:43:25;;;;;;;21.65;14.10;;;3.40;84.20;;;-151.14;100.00;62537.16;3902012;36;20073;-86
2021/12/16 00:54:12;;;;;;;22.95;13.25;;;3.40;84.30;;;-151.14;100.00;62537.16;3928699;35;20259;-88
2021/12/16 00:56:56;;;;;;;22.73;14.05;;;3.40;84.30;;;-151.14;100.00;62537.16;3927649;35;20199;-85
2021/12/16 00:59:26;;;;;;;25.08;14.32;;;3.40;84.40;;;-151.14;100.00;62537.16;3908857;35;20016;-87
2021/12/16 01:02:06;;;;;;;23.33;14.50;;;3.40;84.30;;;-151.14;100.00;62537.16;3907385;35;20003;-86
2021/12/16 01:35:56;;;;;;;21.38;13.25;;;3.40;84.40;;;-151.14;100.00;62537.16;3917192;36;20013;-86
2021/12/16 01:46:59;;;;;;;21.92;14.32;;;3.40;84.40;;;-151.14;100.00;62537.16;3914416;36;20080;-87
2021/12/16 01:57:25;;;;;;;23.53;14.77;;;3.40;84.30;;;-151.14;100.00;62537.16;3901275;36;20324;-86
2021/12/16 02:00:00;;;;;;;19.65;12.98;;;3.40;84.30;;;-151.14;100.00;62537.16;3924536;35;20242;-86
2021/12/16 02:08:20;;;;;;;22.43;14.43;;;3.40;84.40;;;-151.14;100.00;62537.16;3901275;36;20079;-86
2021/12/16 02:10:26;;;;;;;20.67;13.23;;;3.40;84.30;;;-151.14;100.00;62537.16;3868403;36;20112;-88
2021/12/16 02:36:48;;;;;;;22.17;13.18;;;3.40;84.40;;;-151.14;100.00;62537.16;3938411;36;19996;-86
2021/12/16 02:39:27;;;;;;;23.38;13.40;;;3.40;84.40;;;-151.14;100.00;62537.16;3900920;36;20024;-86
2021/12/16 02:42:05;;;;;;;21.15;12.93;;;3.40;84.30;;;-151.14;100.00;62537.16;3901942;36;20159;-86
2021/12/16 02:48:27;;;;;;;21.20;12.80;;;3.40;84.40;;;-151.14;100.00;62537.16;3902448;36;20101;-86
2021/12/16 02:50:06;;;;;;;19.90;13.45;;;3.40;84.30;;;-151.14;100.00;62537.16;3927164;35;20548;-86
2021/12/16 02:52:32;;;;;;;21.35;13.90;;;3.40;84.30;;;-151.14;100.00;62537.16;3900955;36;19997;-86
2021/12/16 02:54:59;;;;;;;20.67;12.00;;;3.40;84.30;;;-151.14;100.00;62537.16;3900598;36;20242;-86
2021/12/16 02:57:25;;;;;;;22.00;13.52;;;3.40;84.30;;;-151.14;100.00;62537.16;3862009;36;19993;-86
2021/12/16 02:59:53;;;;;;;19.50;13.02;;;3.40;84.30;;;-151.14;100.00;62537.16;3900919;36;20181;-85
2021/12/16 03:02:20;;;;;;;22.35;13.35;;;3.40;84.20;;;-151.14;100.00;62537.16;3901128;36;20226;-86
2021/12/16 03:04:51;;;;;;;20.50;12.77;;;3.40;84.30;;;-151.14;100.00;62537.16;3920516;36;20233;-87
2021/12/16 03:07:19;;;;;;;20.27;12.75;;;3.40;84.30;;;-151.14;100.00;62537.16;3920829;36;19993;-86
2021/12/16 03:14:59;;;;;;;22.13;14.00;;;3.40;84.40;;;-151.14;100.00;62537.16;3902539;36;19996;-85
2021/12/16 03:17:35;;;;;;;21.42;12.98;;;3.40;84.50;;;-151.14;100.00;62537.16;3920839;36;20049;-85
2021/12/16 03:20:14;;;;;;;20.70;13.10;;;3.40;84.30;;;-151.14;100.00;62537.16;3920735;36;20229;-85
2021/12/16 03:23:19;;;;;;;21.80;13.48;;;3.40;84.30;;;-151.14;100.00;62537.16;3902739;36;20371;-86
2021/12/16 03:31:12;;;;;;;20.83;12.32;;;3.40;84.40;;;-151.14;100.00;62537.16;3886161;36;20421;-86
2021/12/16 03:38:59;;;;;;;22.23;13.48;;;3.40;84.20;;;-151.14;100.00;62537.16;3865537;36;20292;-86
2021/12/16 03:41:26;;;;;;;21.13;13.15;;;3.40;84.20;;;-151.14;100.00;62537.16;3903804;36;20005;-86
2021/12/16 03:43:53;;;;;;;19.15;12.32;;;3.40;84.40;;;-151.14;100.00;62537.16;3882601;36;20312;-86
2021/12/16 03:46:27;;;;;;;20.48;12.90;;;3.40;84.30;;;-151.14;100.00;62537.16;3902319;36;20248;-86
2021/12/16 03:49:09;;;;;;;22.23;13.98;;;3.40;84.30;;;-151.14;100.00;62537.16;3902902;36;20008;-86
2021/12/16 03:51:59;;;;;;;20.95;13.10;;;3.40;84.30;;;-151.14;100.00;62537.16;3902419;36;19993;-86
2021/12/16 03:54:41;;;;;;;21.13;13.65;;;3.30;84.30;;;-151.14;100.00;62537.16;3902473;36;20009;-86
2021/12/16 03:57:11;;;;;;;20.70;13.82;;;3.30;84.30;;;-151.14;100.00;62537.16;3904264;36;19985;-85
2021/12/16 03:59:39;;;;;;;20.48;12.70;;;3.40;84.40;;;-151.14;100.00;62537.16;3902976;36;19997;-86
2021/12/16 04:02:23;;;;;;;21.45;13.07;;;3.30;84.30;;;-151.14;100.00;62537.16;3903660;36;19993;-86
2021/12/16 04:04:51;;;;;;;21.95;13.05;;;3.40;84.30;;;-151.14;100.00;62537.16;3903025;36;20113;-86
2021/12/16 04:07:23;;;;;;;22.75;13.35;;;3.40;84.30;;;-151.14;100.00;62537.16;3883697;36;20032;-86
2021/12/16 04:10:32;;;;;;;22.25;13.30;;;3.30;84.30;;;-151.14;100.00;62537.16;3892325;36;20213;-85
2021/12/16 04:13:02;;;;;;;21.35;14.02;;;3.40;84.40;;;-151.14;100.00;62537.16;3903842;36;20068;-85
2021/12/16 04:15:29;;;;;;;20.40;12.65;;;3.40;84.30;;;-151.14;100.00;62537.16;3902377;36;20164;-86
2021/12/16 04:17:55;;;;;;;22.67;13.95;;;3.30;84.30;;;-151.14;100.00;62537.16;3902395;36;20285;-86
2021/12/16 04:20:22;;;;;;;22.20;14.05;;;3.30;84.30;;;-151.14;100.00;62537.16;3843327;36;19997;-86
2021/12/16 04:22:51;;;;;;;22.42;13.68;;;3.30;84.40;;;-151.14;100.00;62537.16;3902391;36;20016;-86
2021/12/16 04:25:27;;;;;;;20.42;13.32;;;3.30;84.30;;;-151.14;100.00;62537.16;3902598;36;20016;-86
2021/12/16 04:27:59;;;;;;;22.10;14.55;;;3.30;84.30;;;-151.14;100.00;62537.16;3863652;36;20256;-87
2021/12/16 04:30:27;;;;;;;23.70;14.27;;;3.30;84.30;;;-151.14;100.00;62537.16;3883001;36;20223;-87
2021/12/16 04:32:53;;;;;;;21.70;12.48;;;3.30;84.30;;;-151.14;100.00;62537.16;3902473;36;20095;-86
2021/12/16 04:35:22;;;;;;;22.92;13.25;;;3.30;84.30;;;-151.14;100.00;62537.16;3902370;36;20155;-86
2021/12/16 04:37:52;;;;;;;22.75;13.63;;;3.30;84.30;;;-151.14;100.00;62537.16;3884009;36;20042;-85
2021/12/16 04:40:20;;;;;;;23.75;14.10;;;3.30;84.30;;;-151.14;100.00;62537.16;3902058;36;20000;-88
2021/12/16 04:42:53;;;;;;;22.20;13.60;;;3.30;84.30;;;-151.14;100.00;62537.16;3903853;35;20391;-86
2021/12/16 04:45:21;;;;;;;20.67;12.90;;;3.40;84.30;;;-151.14;100.00;62537.16;3921701;36;20168;-87
2021/12/16 04:47:49;;;;;;;25.75;14.32;;;3.30;84.40;;;-151.14;100.00;62537.16;3902936;36;20047;-87
2021/12/16 04:50:16;;;;;;;19.35;12.52;;;3.30;84.20;;;-151.14;100.00;62537.16;3912071;35;20263;-86
2021/12/16 04:52:43;;;;;;;22.85;13.20;;;3.30;84.50;;;-151.14;100.00;62537.16;3906003;35;19988;-86
2021/12/16 04:55:12;;;;;;;23.40;13.35;;;3.30;84.40;;;-151.14;100.00;62537.16;3879570;36;20440;-86
2021/12/16 04:57:41;;;;;;;24.45;14.32;;;3.30;84.30;;;-151.14;100.00;62537.16;3862701;36;20216;-86
2021/12/16 05:00:12;;;;;;;21.05;13.15;;;3.30;84.30;;;-151.14;100.00;62537.16;3877721;36;20240;-86
2021/12/16 05:02:44;;;;;;;23.35;13.65;;;3.30;84.30;;;-151.14;100.00;62537.16;3898147;36;20321;-86
2021/12/16 05:05:25;;;;;;;22.75;13.75;;;3.30;84.30;;;-151.14;100.00;62537.16;3928728;35;20088;-86
2021/12/16 05:07:52;;;;;;;22.95;12.90;;;3.30;84.40;;;-151.14;100.00;62537.16;3902047;36;19999;-87
2021/12/16 05:10:25;;;;;;;23.27;14.70;;;3.30;84.40;;;-151.14;100.00;62537.16;3921438;36;20006;-87
2021/12/16 05:13:06;;;;;;;21.55;13.63;;;3.30;84.40;;;-151.14;100.00;62537.16;3897490;36;20089;-86
2021/12/16 05:15:36;;;;;;;22.33;13.55;;;3.30;84.30;;;-151.14;100.00;62537.16;3877482;36;20203;-86
2021/12/16 05:18:07;;;;;;;22.85;14.00;;;3.30;84.40;;;-151.14;100.00;62537.16;3897921;36;19989;-86
2021/12/16 05:20:41;;;;;;;25.20;14.55;;;3.30;84.30;;;-151.14;100.00;62537.16;3898269;36;20049;-87
2021/12/16 05:28:23;;;;;;;23.83;14.30;;;3.30;84.50;;;-151.14;100.00;62537.16;3877542;36;20050;-87
2021/12/16 05:30:51;;;;;;;23.98;13.98;;;3.30;84.40;;;-151.14;100.00;62537.16;3898072;36;20167;-87
2021/12/16 05:33:19;;;;;;;22.50;14.13;;;3.30;84.50;;;-151.14;100.00;62537.16;3897501;36;20072;-87
2021/12/16 05:35:47;;;;;;;23.30;13.43;;;3.30;84.50;;;-151.14;100.00;62537.16;3895129;36;20031;-87
2021/12/16 05:38:13;;;;;;;23.25;13.77;;;3.30;84.40;;;-151.14;100.00;62537.16;3958408;35;20016;-87
2021/12/16 05:40:40;;;;;;;22.75;13.50;;;3.30;84.40;;;-151.14;100.00;62537.16;3897167;36;20386;-87
2021/12/16 05:43:16;;;;;;;21.92;13.05;;;3.30;84.40;;;-151.14;100.00;62537.16;3878860;36;20005;-87
2021/12/16 05:45:43;;;;;;;25.48;14.82;;;3.30;84.40;;;-151.14;100.00;62537.16;3882627;36;20189;-85
2021/12/16 05:48:13;;;;;;;24.48;13.85;;;3.30;84.40;;;-151.14;100.00;62537.16;3881562;35;19997;-87
2021/12/16 05:50:43;;;;;;;22.52;14.02;;;3.30;84.40;;;-151.14;100.00;62537.16;3921221;36;19996;-87
2021/12/16 05:53:10;;;;;;;21.15;14.25;;;3.30;84.40;;;-151.14;100.00;62537.16;3942744;35;20015;-87
2021/12/16 05:55:37;;;;;;;24.25;14.60;;;3.30;84.40;;;-151.14;100.00;62537.16;3900806;36;20050;-86
2021/12/16 05:58:30;;;;;;;21.63;13.23;;;3.30;84.40;;;-151.14;100.00;62537.16;3904196;36;20343;-86
2021/12/16 06:01:05;;;;;;;23.02;12.77;;;3.30;84.40;;;-151.14;100.00;62537.16;3941750;36;20091;-86
2021/12/16 06:03:33;;;;;;;25.33;14.35;;;3.30;84.40;;;-151.14;100.00;62537.16;3920969;36;20420;-86
2021/12/16 06:06:00;;;;;;;21.42;13.13;;;3.30;84.40;;;-151.14;100.00;62537.16;3900658;36;20007;-87
2021/12/16 06:08:26;;;;;;;23.88;14.02;;;3.30;84.30;;;-151.14;100.00;62537.16;3921341;35;19989;-87
2021/12/16 06:13:37;;;;;;;22.48;13.32;;;3.30;84.40;;;-151.14;100.00;62537.16;3885496;36;20368;-87
2021/12/16 06:29:21;;;;;;;20.77;11.98;;;3.30;84.30;;;-151.14;100.00;62537.16;3868243;35;19995;-87
2021/12/16 06:31:48;;;;;;;20.90;13.35;;;3.30;84.40;;;-151.14;100.00;62537.16;3866692;35;20171;-86
2021/12/16 06:34:14;;;;;;;22.58;14.05;;;3.30;84.40;;;-151.14;100.00;62537.16;3865869;35;20445;-86
2021/12/16 06:36:40;;;;;;;21.77;14.40;;;3.30;84.40;;;-151.14;100.00;62537.16;3905313;35;20227;-86
2021/12/16 06:39:07;;;;;;;25.55;14.57;;;3.30;84.30;;;-151.14;100.00;62537.16;3885578;35;20056;-86
2021/12/16 06:41:39;;;;;;;21.67;13.80;;;3.30;84.30;;;-151.14;100.00;62537.16;3889501;35;19996;-85
2021/12/16 06:44:25;;;;;;;21.88;13.15;;;3.30;84.40;;;-151.14;100.00;62537.16;3910967;35;20042;-86
2021/12/16 06:46:56;;;;;;;21.55;12.93;;;3.30;84.40;;;-151.14;100.00;62537.16;3906740;35;20038;-86
2021/12/16 06:49:23;;;;;;;25.15;14.75;;;3.30;84.30;;;-151.14;100.00;62537.16;3905978;35;20016;-86
2021/12/16 06:51:54;;;;;;;23.02;13.40;;;3.30;84.40;;;-151.14;100.00;62537.16;3900258;36;20383;-86
2021/12/16 06:54:29;;;;;;;23.20;13.98;;;3.30;84.40;;;-151.14;100.00;62537.16;3901398;36;20088;-85
2021/12/16 06:57:22;;;;;;;24.48;15.02;;;3.30;84.40;;;-151.14;100.00;62537.16;3885241;36;20060;-86
2021/12/16 07:00:07;;;;;;;24.13;14.38;;;3.30;84.40;;;-151.14;100.00;62537.16;3871601;36;20001;-86
2021/12/16 07:05:07;;;;;;;24.00;13.35;;;3.30;84.30;;;-151.14;100.00;62537.16;3901678;36;20279;-86
2021/12/16 07:07:33;;;;;;;24.15;14.13;;;3.30;84.40;;;-151.14;100.00;62537.16;3901369;36;20020;-86
2021/12/16 07:09:59;;;;;;;22.73;13.93;;;3.30;84.30;;;-151.14;100.00;62537.16;3902652;35;19985;-87
2021/12/16 07:12:35;;;;;;;24.95;14.00;;;3.30;84.50;;;-151.14;100.00;62537.16;3902839;36;20000;-87
2021/12/16 07:15:07;;;;;;;23.92;12.98;;;3.30;84.30;;;-151.14;100.00;62537.16;3904139;36;20027;-86
2021/12/16 07:17:34;;;;;;;22.48;13.20;;;3.30;84.30;;;-151.14;100.00;62537.16;3904055;36;19997;-87
2021/12/16 07:20:00;;;;;;;22.35;13.30;;;3.30;84.40;;;-151.14;100.00;62537.16;3902834;36;20000;-87
2021/12/16 07:22:26;;;;;;;23.35;14.13;;;3.30;84.40;;;-151.14;100.00;62537.16;3863364;36;20133;-87
2021/12/16 07:24:52;;;;;;;23.13;14.15;;;3.30;84.50;;;-151.14;100.00;62537.16;3902621;36;19989;-86
2021/12/16 07:27:19;;;;;;;23.60;13.77;;;3.30;84.50;;;-151.14;100.00;62537.16;3902756;36;20151;-86
2021/12/16 07:29:45;;;;;;;24.88;14.27;;;3.30;84.40;;;-151.14;100.00;62537.16;3922819;36;19996;-86
2021/12/16 07:32:11;;;;;;;27.15;15.35;;;3.30;84.40;;;-151.14;100.00;62537.16;3883259;36;20009;-86
2021/12/16 07:34:38;;;;;;;22.55;13.13;;;3.30;84.40;;;-151.14;100.00;62537.16;3902425;36;19989;-87
2021/12/16 07:37:06;;;;;;;24.73;13.85;;;3.30;84.30;;;-151.14;100.00;62537.16;3923000;35;20004;-87
2021/12/16 07:39:38;;;;;;;22.77;13.15;;;3.30;84.30;;;-151.14;100.00;62537.16;3887777;35;19988;-87
2021/12/16 07:42:08;;;;;;;22.33;13.30;;;3.30;84.40;;;-151.14;100.00;62537.16;3907783;35;20040;-87
2021/12/16 07:44:34;;;;;;;20.10;13.43;;;3.30;84.30;;;-151.14;100.00;62537.16;3907301;35;20162;-86
2021/12/16 07:47:06;;;;;;;21.20;13.52;;;3.30;84.30;;;-151.14;100.00;62537.16;3907051;35;20044;-87
2021/12/16 07:49:39;;;;;;;23.02;14.02;;;3.30;84.40;;;-151.14;100.00;62537.16;3906928;35;20351;-87
2021/12/16 07:52:13;;;;;;;22.85;13.02;;;3.30;84.30;;;-151.14;100.00;62537.16;3909105;35;20003;-86
2021/12/16 07:54:40;;;;;;;24.75;14.43;;;3.30;84.40;;;-151.14;100.00;62537.16;3887789;35;19996;-86
2021/12/16 07:57:06;;;;;;;21.90;13.45;;;3.30;84.40;;;-151.14;100.00;62537.16;3906789;35;20075;-87
2021/12/16 07:59:34;;;;;;;21.95;12.88;;;3.30;84.30;;;-151.14;100.00;62537.16;3906908;35;19988;-86
2021/12/16 08:02:00;;;;;;;21.98;13.27;;;3.30;84.30;;;-151.14;100.00;62537.16;3907293;35;20000;-87
2021/12/16 08:04:29;;;;;;;23.63;13.55;;;3.30;84.30;;;-151.14;100.00;62537.16;3906615;35;20075;-87
2021/12/16 08:07:03;;;;;;;23.42;13.93;;;3.30;84.30;;;-151.14;100.00;62537.16;3888645;35;20244;-86
2021/12/16 08:09:35;;;;;;;25.88;14.23;;;3.30;84.30;;;-151.14;100.00;62537.16;3888523;35;20067;-86
2021/12/16 08:12:03;;;;;;;20.02;12.95;;;3.30;84.40;;;-151.14;100.00;62537.16;3887826;35;20161;-87
2021/12/16 08:14:29;;;;;;;20.27;12.65;;;3.30;84.30;;;-151.14;100.00;62537.16;3887219;35;20084;-87
2021/12/16 08:16:56;;;;;;;22.05;13.00;;;3.30;84.30;;;-151.14;100.00;62537.16;3906818;35;20656;-87
2021/12/16 08:19:23;;;;;;;20.63;12.30;;;3.30;84.30;;;-151.14;100.00;62537.16;3927290;35;19996;-86
2021/12/16 08:21:49;;;;;;;22.50;12.30;;;3.30;84.30;;;-151.14;100.00;62537.16;3885988;35;20187;-87
2021/12/16 08:24:17;;;;;;;19.63;11.45;;;3.30;85.10;;;-151.14;100.00;62537.16;3886298;35;20011;-87
2021/12/16 08:26:49;;;;;;;18.25;11.35;;;3.30;84.30;;;-151.14;100.00;62537.16;3926797;35;20020;-87
2021/12/16 08:29:15;;;;;;;19.75;11.73;;;3.30;84.20;;;-151.14;100.00;62537.16;3887716;35;20107;-87
2021/12/16 08:31:42;;;;;;;18.25;11.80;;;3.30;84.30;;;-151.14;100.00;62537.16;3886642;35;20593;-87
2021/12/16 08:34:08;;;;;;;19.65;11.88;;;3.30;84.20;;;-151.14;100.00;62537.16;3926576;35;19999;-87
2021/12/16 08:36:34;;;;;;;20.55;12.80;;;3.30;84.20;;;-151.14;100.00;62537.16;3926412;35;20280;-86
2021/12/16 08:39:04;;;;;;;18.50;11.52;;;3.30;84.20;;;-151.14;100.00;62537.16;3906528;35;20064;-87
2021/12/16 08:41:46;;;;;;;20.00;12.00;;;3.30;84.20;;;-151.14;100.00;62537.16;3886924;35;20537;-87
2021/12/16 08:44:13;;;;;;;20.58;11.85;;;3.30;84.20;;;-151.14;100.00;62537.16;3907249;35;19988;-87
2021/12/16 08:46:47;;;;;;;18.88;10.80;;;3.30;84.30;;;-151.14;100.00;62537.16;3926394;35;20239;-86
2021/12/16 08:49:14;;;;;;;17.98;10.82;;;3.30;84.30;;;-151.14;100.00;62537.16;3926464;35;19992;-87
2021/12/16 08:51:48;;;;;;;20.00;11.52;;;3.30;84.30;;;-151.14;100.00;62537.16;3886696;35;20000;-87
2021/12/16 08:54:16;;;;;;;18.92;11.15;;;3.30;84.30;;;-151.14;100.00;62537.16;3888052;35;20128;-87
2021/12/16 08:56:43;;;;;;;18.92;10.63;;;3.30;84.20;;;-151.14;100.00;62537.16;3886715;35;20036;-87
2021/12/16 08:59:10;;;;;;;19.05;11.57;;;3.30;84.30;;;-151.14;100.00;62537.16;3926399;35;20259;-87
2021/12/16 09:01:49;;;;;;;18.75;11.82;;;3.30;84.30;;;-151.14;100.00;62537.16;3906442;35;20021;-86
2021/12/16 09:04:19;;;;;;;19.88;11.05;;;3.30;84.30;;;-151.14;100.00;62537.16;3885888;35;20350;-86
2021/12/16 09:06:46;;;;;;;20.00;11.38;;;3.30;84.10;;;-151.14;100.00;62537.16;3887006;35;20161;-87
2021/12/16 09:09:12;;;;;;;17.92;10.50;;;3.30;84.10;;;-151.14;100.00;62537.16;3905831;35;20041;-87
2021/12/16 09:11:45;;;;;;;19.58;10.93;;;3.30;84.20;;;-151.14;100.00;62537.16;3886698;35;20000;-87
2021/12/16 09:14:11;;;;;;;19.25;11.73;;;3.30;84.20;;;-151.14;100.00;62537.16;3889069;35;20357;-86
2021/12/16 09:16:37;;;;;;;22.13;11.45;;;3.30;84.20;;;-151.14;100.00;62537.16;3905584;35;19996;-86
2021/12/16 09:19:05;;;;;;;17.95;10.85;;;3.30;84.20;;;-151.14;100.00;62537.16;3866586;35;20156;-87
2021/12/16 09:21:34;;;;;;;17.23;9.98;;;3.30;84.10;;;-151.14;100.00;62537.16;3886543;35;20073;-86
2021/12/16 09:24:00;;;;;;;17.52;10.25;;;3.30;84.00;;;-151.14;100.00;62537.16;3886739;35;20106;-87
2021/12/16 09:26:28;;;;;;;16.95;10.35;;;3.30;84.10;;;-151.14;100.00;62537.16;3905761;35;19988;-87
2021/12/16 09:28:54;;;;;;;16.65;10.02;;;3.30;84.20;;;-151.14;100.00;62537.16;3925914;35;20016;-87
2021/12/16 09:31:29;;;;;;;17.15;10.52;;;3.30;84.10;;;-151.14;100.00;62537.16;3925734;35;20221;-86
2021/12/16 09:34:02;;;;;;;17.10;9.90;;;3.30;84.10;;;-151.14;100.00;62537.16;3906041;35;20000;-86
2021/12/16 09:36:28;;;;;;;13.95;9.13;;;3.30;84.10;;;-151.14;100.00;62537.16;3918121;36;19998;-86
2021/12/16 09:38:56;;;;;;;16.60;9.90;;;3.30;84.20;;;-151.14;100.00;62537.16;3838711;36;19989;-87
2021/12/16 09:41:25;;;;;;;16.50;9.77;;;3.30;84.10;;;-151.14;100.00;62537.16;3858889;36;20253;-86
2021/12/16 09:43:52;;;;;;;17.27;9.90;;;3.30;84.10;;;-151.14;100.00;62537.16;3858457;36;20012;-86
2021/12/16 09:46:23;;;;;;;16.27;9.35;;;3.30;84.20;;;-151.14;100.00;62537.16;3857893;36;20217;-87
2021/12/16 09:48:51;;;;;;;18.20;10.25;;;3.30;84.10;;;-151.14;100.00;62537.16;3863475;36;20168;-87
2021/12/16 09:51:23;;;;;;;15.63;10.00;;;3.30;84.10;;;-151.14;100.00;62537.16;3881916;36;19993;-86
2021/12/16 09:54:00;;;;;;;15.80;9.98;;;3.30;84.20;;;-151.14;100.00;62537.16;3843768;36;20236;-86
2021/12/16 09:56:27;;;;;;;14.77;9.52;;;3.30;84.30;;;-151.14;100.00;62537.16;3882256;36;19997;-86
2021/12/16 09:58:55;;;;;;;15.40;9.30;;;3.30;84.20;;;-151.14;100.00;62537.16;3881469;36;19993;-86
2021/12/16 10:01:23;;;;;;;16.95;9.63;;;3.30;84.30;;;-151.14;100.00;62537.16;3881582;36;20041;-86
2021/12/16 10:03:53;;;;;;;14.57;8.77;;;3.30;84.20;;;-151.14;100.00;62537.16;3881459;36;20017;-86
2021/12/16 10:06:20;;;;;;;17.25;9.70;;;3.30;84.20;;;-151.14;100.00;62537.16;3881254;36;19993;-87
2021/12/16 10:08:47;;;;;;;17.30;10.02;;;3.30;84.20;;;-151.14;100.00;62537.16;3921427;36;20045;-86
2021/12/16 10:11:15;;;;;;;18.08;9.50;;;3.30;84.20;;;-151.14;100.00;62537.16;3941557;36;20378;-86
2021/12/16 10:13:59;;;;;;;14.07;9.27;;;3.30;84.20;;;-151.14;100.00;62537.16;3901537;36;19985;-86
2021/12/16 10:19:12;;;;;;;16.40;9.32;;;3.30;84.20;;;-151.14;100.00;62537.16;3938303;35;20038;-86
2021/12/16 10:21:41;;;;;;;17.42;10.27;;;3.30;84.20;;;-151.14;100.00;62537.16;3901403;36;20000;-86
2021/12/16 10:24:31;;;;;;;16.40;9.93;;;3.30;84.20;;;-151.14;100.00;62537.16;3901315;36;20016;-86
2021/12/16 10:27:21;;;;;;;15.38;9.38;;;3.30;84.10;;;-151.14;100.00;62537.16;3894367;36;20273;-86
2021/12/16 10:29:56;;;;;;;16.58;9.50;;;3.30;84.20;;;-151.14;100.00;62537.16;3916796;36;20366;-86
2021/12/16 10:32:43;;;;;;;15.13;9.25;;;3.30;84.30;;;-151.14;100.00;62537.16;3925427;35;20289;-87
2021/12/16 10:35:32;;;;;;;15.73;9.13;;;3.30;84.30;;;-151.14;100.00;62537.16;3903620;35;20212;-87
2021/12/16 10:38:05;;;;;;;16.42;9.23;;;3.30;84.30;;;-151.14;100.00;62537.16;3867535;36;20001;-86
2021/12/16 10:40:51;;;;;;;15.77;9.48;;;3.30;84.30;;;-151.14;100.00;62537.16;3863039;36;20316;-86
2021/12/16 10:43:46;;;;;;;15.70;9.18;;;3.30;84.20;;;-151.14;100.00;62537.16;3922374;36;20067;-86
2021/12/16 10:46:22;;;;;;;13.43;8.35;;;3.30;84.20;;;-151.14;100.00;62537.16;3864711;36;20008;-86
2021/12/16 10:49:08;;;;;;;15.35;8.82;;;3.30;84.30;;;-151.14;100.00;62537.16;3900546;36;20012;-86
2021/12/16 10:51:50;;;;;;;13.00;8.05;;;3.30;84.20;;;-151.14;100.00;62537.16;3844217;36;20258;-86
2021/12/16 10:54:45;;;;;;;14.32;9.23;;;3.30;84.20;;;-151.14;100.00;62537.16;3860449;36;20049;-86
2021/12/16 10:57:19;;;;;;;16.42;9.15;;;3.30;85.00;;;-151.14;100.00;62537.16;3900023;36;20113;-86
2021/12/16 11:00:00;;;;;;;13.85;8.20;;;3.30;84.10;;;-151.14;100.00;62537.16;3861421;36;20114;-86
2021/12/16 11:02:35;;;;;;;15.77;8.50;;;3.30;84.10;;;-151.14;100.00;62537.16;3880289;36;20343;-86
2021/12/16 11:05:24;;;;;;;13.45;8.05;;;3.30;84.10;;;-151.14;100.00;62537.16;3842121;36;20296;-86
2021/12/16 11:07:58;;;;;;;12.77;8.00;;;3.30;84.10;;;-151.14;100.00;62537.16;3881748;36;20028;-85
2021/12/16 11:10:33;;;;;;;13.65;8.48;;;3.30;84.10;;;-151.14;100.00;62537.16;3860236;36;20269;-86
2021/12/16 11:13:09;;;;;;;14.30;8.75;;;3.30;84.10;;;-151.14;100.00;62537.16;3879748;36;20457;-86
2021/12/16 11:15:47;;;;;;;12.35;7.63;;;3.30;84.90;;;-151.14;100.00;62537.16;3879060;36;20197;-86
2021/12/16 11:18:23;;;;;;;13.80;8.20;;;3.30;84.10;;;-151.14;100.00;62537.16;3918220;36;20118;-86
2021/12/16 11:21:06;;;;;;;15.13;7.88;;;3.30;84.10;;;-151.14;100.00;62537.16;3898852;36;19997;-86
2021/12/16 11:23:40;;;;;;;11.77;7.35;;;3.30;84.00;;;-151.14;100.00;62537.16;3918109;36;19994;-86
2021/12/16 11:26:11;;;;;;;12.55;7.20;;;3.30;84.00;;;-151.14;100.00;62537.16;3897709;36;20250;-86
2021/12/16 11:28:47;;;;;;;12.65;7.90;;;3.30;84.00;;;-151.14;100.00;62537.16;3918641;36;20214;-86
2021/12/16 11:31:31;;;;;;;13.13;7.85;;;3.30;84.00;;;-151.14;100.00;62537.16;3918661;36;20157;-86
2021/12/16 11:34:03;;;;;;;13.68;7.60;;;3.30;84.00;;;-151.14;100.00;62537.16;3897360;36;20035;-86
2021/12/16 11:36:34;;;;;;;12.80;8.57;;;3.30;84.00;;;-151.14;100.00;62537.16;3897953;36;20005;-85
2021/12/16 11:39:27;;;;;;;12.40;7.55;;;3.30;84.00;;;-151.14;100.00;62537.16;3898593;36;20482;-86
2021/12/16 11:42:01;;;;;;;10.65;6.82;;;3.30;84.00;;;-151.14;100.00;62537.16;3918573;36;19994;-87
2021/12/16 11:44:34;;;;;;;14.13;7.75;;;3.30;84.00;;;-151.14;100.00;62537.16;3917120;36;20006;-86
2021/12/16 11:47:06;;;;;;;11.93;7.72;;;3.30;84.00;;;-151.14;100.00;62537.16;3907224;36;20005;-86
2021/12/16 11:50:05;;;;;;;11.98;6.82;;;3.30;84.00;;;-151.14;100.00;62537.16;3860037;36;20007;-86
2021/12/16 11:52:36;;;;;;;9.98;6.57;;;3.30;84.00;;;-151.14;100.00;62537.16;3865645;36;20726;-86
2021/12/16 11:55:13;;;;;;;11.60;7.35;;;3.30;84.00;;;-151.14;100.00;62537.16;3863164;36;20384;-86
2021/12/16 11:57:54;;;;;;;12.50;7.38;;;3.30;83.90;;;-151.14;100.00;62537.16;3884849;36;20005;-86
2021/12/16 12:00:30;;;;;;;14.43;8.70;;;3.30;84.00;;;-151.14;100.00;62537.16;3883611;36;20108;-87
2021/12/16 12:03:06;;;;;;;12.10;7.53;;;3.30;84.00;;;-151.14;100.00;62537.16;3884346;36;20112;-86
2021/12/16 12:05:45;;;;;;;10.02;6.60;;;3.30;84.00;;;-151.14;100.00;62537.16;3883902;36;20316;-86
2021/12/16 12:08:24;;;;;;;12.27;7.28;;;3.30;84.00;;;-151.14;100.00;62537.16;3883230;35;20068;-86
2021/12/16 12:11:06;;;;;;;12.07;6.93;;;3.30;84.00;;;-151.14;100.00;62537.16;3883201;36;20060;-86
2021/12/16 12:13:43;;;;;;;10.23;6.68;;;3.30;84.00;;;-151.14;100.00;62537.16;3904609;36;20160;-86
2021/12/16 12:16:14;;;;;;;12.07;6.90;;;3.30;84.00;;;-151.14;100.00;62537.16;3902266;36;20300;-86
2021/12/16 12:19:23;;;;;;;11.48;6.47;;;3.30;84.00;;;-151.14;100.00;62537.16;3902372;36;20029;-86
2021/12/16 12:21:56;;;;;;;11.93;7.15;;;3.30;84.00;;;-151.14;100.00;62537.16;3891172;36;20316;-86
2021/12/16 12:24:36;;;;;;;11.35;6.63;;;3.30;84.00;;;-151.14;100.00;62537.16;3903129;36;20419;-86
2021/12/16 12:27:12;;;;;;;11.20;6.75;;;3.30;84.00;;;-151.14;100.00;62537.16;3867425;35;20005;-86
2021/12/16 12:30:03;;;;;;;11.20;6.50;;;3.30;84.10;;;-151.14;100.00;62537.16;3907673;35;20139;-86
2021/12/16 12:32:32;;;;;;;10.05;6.18;;;3.30;84.00;;;-151.14;100.00;62537.16;3906939;35;20004;-86
2021/12/16 12:35:17;;;;;;;11.02;5.68;;;3.30;84.00;;;-151.14;100.00;62537.16;3886295;35;20000;-87
2021/12/16 12:37:47;;;;;;;9.77;5.97;;;3.30;84.10;;;-151.14;100.00;62537.16;3909442;35;20144;-86
2021/12/16 12:40:36;;;;;;;11.10;6.57;;;3.30;84.00;;;-151.14;100.00;62537.16;3899602;30;20215;-85
2021/12/16 12:43:04;;;;;;;9.70;6.03;;;3.30;84.00;;;-151.14;100.00;62537.16;3883821;36;20337;-85
2021/12/16 12:45:38;;;;;;;10.07;6.25;;;3.30;84.00;;;-151.14;100.00;62537.16;3922403;36;20001;-85
2021/12/16 12:48:13;;;;;;;12.35;6.25;;;3.30;84.10;;;-151.14;100.00;62537.16;3882816;36;20045;-85
2021/12/16 12:50:41;;;;;;;8.75;5.78;;;3.30;84.00;;;-151.14;100.00;62537.16;3882665;36;20372;-85
2021/12/16 12:53:48;;;;;;;8.63;5.20;;;3.30;84.00;;;-151.14;100.00;62537.16;3863387;36;20307;-85
2021/12/16 12:56:24;;;;;;;9.20;6.10;;;3.30;84.10;;;-151.14;100.00;62537.16;3888212;36;20082;-86
2021/12/16 12:59:03;;;;;;;9.85;6.07;;;3.30;84.10;;;-151.14;100.00;62537.16;3938330;35;20007;-85
2021/12/16 13:01:41;;;;;;;8.52;6.00;;;3.30;84.10;;;-151.14;100.00;62537.16;3971770;35;20214;-85
2021/12/16 13:04:28;;;;;;;8.23;5.53;;;3.30;84.10;;;-151.14;100.00;62537.16;3912580;36;20008;-86